createdAt,value
2023-01-19T00:00:32.049Z,99548.34
2023-01-19T00:02:33.677Z,99549.91
2023-01-19T00:04:35.537Z,99549.41
2023-01-19T00:06:37.188Z,99557.34
2023-01-19T00:08:38.983Z,99553.56
2023-01-19T00:10:41.111Z,99552.50
2023-01-19T00:12:42.834Z,99551.44
2023-01-19T00:14:45.869Z,99555.97
2023-01-19T00:16:47.656Z,99551.97
2023-01-19T00:18:50.734Z,99552.78
2023-01-19T00:20:52.317Z,99553.34
2023-01-19T00:22:53.888Z,99558.16
2023-01-19T00:24:55.485Z,99560.25
2023-01-19T00:26:57.074Z,99559.44
2023-01-19T00:28:58.645Z,99561.28
2023-01-19T00:31:01.729Z,99556.78
2023-01-19T00:33:03.706Z,99564.22
2023-01-19T00:35:06.035Z,99561.28
2023-01-19T00:37:07.652Z,99564.19
2023-01-19T00:39:09.200Z,99571.41
2023-01-19T00:41:10.839Z,99573.28
2023-01-19T00:43:12.387Z,99574.63
2023-01-19T00:45:15.925Z,99576.22
2023-01-19T00:47:18.838Z,99586.13
2023-01-19T00:49:20.401Z,99580.72
2023-01-19T00:51:21.953Z,99586.34
2023-01-19T00:53:24.091Z,99579.94
2023-01-19T00:55:25.629Z,99582.28
2023-01-19T00:57:27.261Z,99575.91
2023-01-19T00:59:29.547Z,99586.03
2023-01-19T01:01:46.227Z,99588.38
2023-01-19T01:03:49.676Z,99585.44
2023-01-19T01:05:51.249Z,99586.25
2023-01-19T01:07:52.872Z,99586.78
2023-01-19T01:09:54.565Z,99595.03
2023-01-19T01:11:56.580Z,99587.59
2023-01-19T01:13:58.156Z,99590.25
2023-01-19T01:16:00.881Z,99588.38
2023-01-19T01:18:02.711Z,99599.88
2023-01-19T01:20:06.325Z,99592.66
2023-01-19T01:22:08.474Z,99592.22
2023-01-19T01:24:10.576Z,99594.34
2023-01-19T01:26:12.105Z,99599.69
2023-01-19T01:28:13.651Z,99602.88
2023-01-19T01:30:15.604Z,99605.53
2023-01-19T01:32:17.217Z,99607.88
2023-01-19T01:34:19.000Z,99612.97
2023-01-19T01:36:21.956Z,99604.47
2023-01-19T01:38:23.535Z,99597.28
2023-01-19T01:40:25.118Z,99601.00
2023-01-19T01:42:28.456Z,99607.38
2023-01-19T01:44:46.503Z,99595.63
2023-01-19T01:46:48.170Z,99604.16
2023-01-19T01:48:55.765Z,99603.59
2023-01-19T01:51:00.785Z,99601.97
2023-01-19T01:53:08.894Z,99598.75
2023-01-19T01:55:12.321Z,99604.06
2023-01-19T01:57:14.426Z,99600.38
2023-01-19T01:59:19.517Z,99615.03
2023-01-19T02:01:23.046Z,99615.31
2023-01-19T02:03:26.782Z,99610.19
2023-01-19T02:05:33.221Z,99612.84
2023-01-19T02:07:41.821Z,99612.28
2023-01-19T02:09:44.744Z,99615.22
2023-01-19T02:11:47.387Z,99608.88
2023-01-19T02:13:49.798Z,99608.88
2023-01-19T02:15:53.032Z,99608.66
2023-01-19T02:17:54.691Z,99620.38
2023-01-19T02:19:58.669Z,99609.91
2023-01-19T02:22:05.934Z,99614.47
2023-01-19T02:24:09.569Z,99611.78
2023-01-19T02:26:15.259Z,99608.34
2023-01-19T02:28:17.239Z,99609.63
2023-01-19T02:30:19.243Z,99611.50
2023-01-19T02:32:20.900Z,99603.50
2023-01-19T02:34:23.007Z,99611.00
2023-01-19T02:36:28.456Z,99604.06
2023-01-19T02:38:31.059Z,99607.03
2023-01-19T02:40:34.568Z,99603.00
2023-01-19T02:42:39.369Z,99590.19
2023-01-19T02:44:47.387Z,99598.47
2023-01-19T02:46:49.360Z,99599.56
2023-01-19T02:48:50.987Z,99595.31
2023-01-19T02:50:54.699Z,99594.47
2023-01-19T02:53:00.991Z,99599.78
2023-01-19T02:55:14.395Z,99596.56
2023-01-19T02:57:44.433Z,99592.78
2023-01-19T02:59:58.971Z,99598.69
2023-01-19T03:02:14.695Z,99604.56
2023-01-19T03:04:27.853Z,99604.84
2023-01-19T03:06:42.496Z,99600.56
2023-01-19T03:08:52.999Z,99608.06
2023-01-19T03:11:01.602Z,99608.34
2023-01-19T03:13:12.196Z,99607.78
2023-01-19T03:15:18.667Z,99607.03
2023-01-19T03:17:22.293Z,99615.84
2023-01-19T03:19:26.906Z,99612.63
2023-01-19T03:21:30.560Z,99609.41
2023-01-19T03:23:35.232Z,99613.69
2023-01-19T03:25:42.367Z,99611.03
2023-01-19T03:27:47.127Z,99607.38
2023-01-19T03:29:53.150Z,99609.50
2023-01-19T03:31:57.467Z,99611.59
2023-01-19T03:34:05.658Z,99615.38
2023-01-19T03:36:11.076Z,99621.00
2023-01-19T03:38:15.762Z,99625.25
2023-01-19T03:40:17.749Z,99621.28
2023-01-19T03:42:20.248Z,99616.22
2023-01-19T03:44:23.494Z,99623.44
2023-01-19T03:46:26.931Z,99616.53
2023-01-19T03:48:28.818Z,99626.13
2023-01-19T03:50:31.064Z,99630.13
2023-01-19T03:52:32.918Z,99628.03
2023-01-19T03:54:34.652Z,99634.97
2023-01-19T03:56:36.368Z,99633.38
2023-01-19T03:58:37.940Z,99634.41
2023-01-19T04:00:39.919Z,99629.13
2023-01-19T04:02:43.133Z,99629.13
2023-01-19T04:04:44.957Z,99623.50
2023-01-19T04:06:46.480Z,99622.97
2023-01-19T04:08:49.363Z,99624.88
2023-01-19T04:10:50.936Z,99621.91
2023-01-19T04:12:57.548Z,99632.59
2023-01-19T04:14:59.311Z,99626.19
2023-01-19T04:17:00.963Z,99634.19
2023-01-19T04:19:03.893Z,99635.41
2023-01-19T04:21:07.649Z,99635.41
2023-01-19T04:23:09.179Z,99636.72
2023-01-19T04:25:10.919Z,99630.81
2023-01-19T04:27:12.519Z,99634.03
2023-01-19T04:29:14.240Z,99634.03
2023-01-19T04:31:15.820Z,99638.81
2023-01-19T04:33:17.458Z,99636.34
2023-01-19T04:35:20.409Z,99639.56
2023-01-19T04:37:22.267Z,99635.22
2023-01-19T04:39:24.071Z,99645.03
2023-01-19T04:41:25.779Z,99632.19
2023-01-19T04:43:27.464Z,99644.19
2023-01-19T04:45:29.149Z,99637.00
2023-01-19T04:47:30.828Z,99631.69
2023-01-19T04:49:32.393Z,99639.69
2023-01-19T04:51:35.837Z,99634.13
2023-01-19T04:53:37.428Z,99638.16
2023-01-19T04:55:39.441Z,99648.25
2023-01-19T04:57:41.214Z,99649.81
2023-01-19T04:59:42.718Z,99648.25
2023-01-19T05:01:44.236Z,99654.28
2023-01-19T05:03:46.063Z,99656.41
2023-01-19T05:05:47.615Z,99654.81
2023-01-19T05:07:50.571Z,99665.41
2023-01-19T05:09:52.421Z,99655.84
2023-01-19T05:11:54.048Z,99650.53
2023-01-19T05:13:55.691Z,99648.91
2023-01-19T05:15:57.243Z,99650.97
2023-01-19T05:17:58.835Z,99644.84
2023-01-19T05:20:00.400Z,99646.44
2023-01-19T05:22:02.418Z,99650.72
2023-01-19T05:24:06.222Z,99648.56
2023-01-19T05:26:09.556Z,99650.22
2023-01-19T05:28:11.846Z,99662.47
2023-01-19T05:30:13.826Z,99661.31
2023-01-19T05:32:15.440Z,99666.50
2023-01-19T05:34:17.420Z,99669.97
2023-01-19T05:36:18.993Z,99668.66
2023-01-19T05:38:34.317Z,99667.97
2023-01-19T05:40:38.053Z,99667.66
2023-01-19T05:42:39.691Z,99661.53
2023-01-19T05:44:41.254Z,99658.91
2023-01-19T05:46:42.947Z,99657.03
2023-01-19T05:48:44.628Z,99660.47
2023-01-19T05:50:46.231Z,99655.41
2023-01-19T05:52:47.899Z,99653.78
2023-01-19T05:54:49.441Z,99663.66
2023-01-19T05:56:52.335Z,99659.59
2023-01-19T05:58:53.860Z,99662.03
2023-01-19T06:00:55.500Z,99663.56
2023-01-19T06:02:57.147Z,99662.94
2023-01-19T06:05:01.102Z,99670.69
2023-01-19T06:07:02.686Z,99665.22
2023-01-19T06:09:04.893Z,99666.78
2023-01-19T06:11:06.911Z,99661.97
2023-01-19T06:13:10.118Z,99660.31
2023-01-19T06:15:11.945Z,99667.53
2023-01-19T06:17:13.530Z,99657.69
2023-01-19T06:19:15.061Z,99663.44
2023-01-19T06:21:16.650Z,99668.41
2023-01-19T06:23:18.512Z,99668.09
2023-01-19T06:25:20.110Z,99670.81
2023-01-19T06:27:21.728Z,99669.00
2023-01-19T06:29:25.001Z,99676.50
2023-01-19T06:31:26.623Z,99681.84
2023-01-19T06:33:28.550Z,99688.84
2023-01-19T06:35:30.119Z,99693.47
2023-01-19T06:37:31.715Z,99699.63
2023-01-19T06:39:33.194Z,99698.00
2023-01-19T06:41:35.727Z,99705.44
2023-01-19T06:43:37.579Z,99710.56
2023-01-19T06:45:40.575Z,99715.84
2023-01-19T06:47:42.175Z,99712.97
2023-01-19T06:49:43.898Z,99712.41
2023-01-19T06:51:45.480Z,99722.06
2023-01-19T06:53:47.218Z,99717.22
2023-01-19T06:55:48.785Z,99714.19
2023-01-19T06:57:56.171Z,99719.72
2023-01-19T06:59:57.715Z,99729.81
2023-01-19T07:02:00.786Z,99727.63
2023-01-19T07:04:22.164Z,99734.31
2023-01-19T07:06:23.798Z,99740.97
2023-01-19T07:08:25.503Z,99731.97
2023-01-19T07:10:27.211Z,99733.69
2023-01-19T07:12:48.874Z,99729.16
2023-01-19T07:14:50.593Z,99730.44
2023-01-19T07:16:52.137Z,99729.41
2023-01-19T07:18:55.141Z,99726.09
2023-01-19T07:20:57.437Z,99730.94
2023-01-19T07:22:59.255Z,99729.81
2023-01-19T07:25:01.101Z,99737.22
2023-01-19T07:27:02.695Z,99732.38
2023-01-19T07:29:04.290Z,99735.03
2023-01-19T07:31:06.198Z,99736.91
2023-01-19T07:33:07.879Z,99743.13
2023-01-19T07:35:10.968Z,99744.00
2023-01-19T07:37:12.600Z,99749.13
2023-01-19T07:39:20.219Z,99747.56
2023-01-19T07:41:21.934Z,99746.41
2023-01-19T07:43:23.495Z,99748.81
2023-01-19T07:45:27.152Z,99752.38
2023-01-19T07:47:29.411Z,99753.59
2023-01-19T07:49:30.967Z,99757.47
2023-01-19T07:51:33.894Z,99764.78
2023-01-19T07:53:35.423Z,99763.59
2023-01-19T07:55:37.294Z,99762.13
2023-01-19T07:57:38.858Z,99755.38
2023-01-19T07:59:40.520Z,99764.28
2023-01-19T08:01:42.190Z,99762.09
2023-01-19T08:03:44.136Z,99769.06
2023-01-19T08:05:50.167Z,99769.06
2023-01-19T08:07:54.153Z,99776.00
2023-01-19T08:09:55.832Z,99780.38
2023-01-19T08:11:57.384Z,99772.38
2023-01-19T08:13:59.165Z,99778.59
2023-01-19T08:16:00.733Z,99779.94
2023-01-19T08:18:03.838Z,99784.97
2023-01-19T08:20:06.841Z,99777.72
2023-01-19T08:22:08.404Z,99783.81
2023-01-19T08:24:17.935Z,99782.38
2023-01-19T08:26:20.250Z,99783.97
2023-01-19T08:28:22.044Z,99780.59
2023-01-19T08:30:23.864Z,99774.47
2023-01-19T08:32:25.479Z,99774.94
2023-01-19T08:34:27.298Z,99769.31
2023-01-19T08:36:28.855Z,99773.91
2023-01-19T08:38:30.426Z,99777.94
2023-01-19T08:40:35.905Z,99775.28
2023-01-19T08:42:37.462Z,99775.94
2023-01-19T08:44:46.691Z,99771.16
2023-01-19T08:46:54.758Z,99772.88
2023-01-19T08:48:56.396Z,99770.59
2023-01-19T08:50:58.558Z,99766.97
2023-01-19T08:53:02.991Z,99771.22
2023-01-19T08:55:06.237Z,99766.34
2023-01-19T08:57:09.152Z,99766.97
2023-01-19T08:59:12.924Z,99768.84
2023-01-19T09:01:14.931Z,99764.00
2023-01-19T09:03:16.643Z,99763.13
2023-01-19T09:05:18.615Z,99771.72
2023-01-19T09:07:20.175Z,99778.75
2023-01-19T09:09:21.713Z,99776.72
2023-01-19T09:11:23.320Z,99783.25
2023-01-19T09:13:26.390Z,99782.50
2023-01-19T09:15:30.738Z,99779.44
2023-01-19T09:17:32.351Z,99781.69
2023-01-19T09:19:35.180Z,99780.06
2023-01-19T09:21:36.843Z,99788.31
2023-01-19T09:23:38.437Z,99776.84
2023-01-19T09:25:41.236Z,99782.34
2023-01-19T09:27:42.794Z,99789.94
2023-01-19T09:29:45.922Z,99785.13
2023-01-19T09:31:47.657Z,99786.00
2023-01-19T09:33:49.246Z,99791.91
2023-01-19T09:35:51.188Z,99782.59
2023-01-19T09:37:52.743Z,99789.81
2023-01-19T09:39:54.348Z,99790.69
2023-01-19T09:42:06.364Z,99790.38
2023-01-19T09:44:16.924Z,99782.59
2023-01-19T09:46:27.259Z,99785.59
2023-01-19T09:48:42.174Z,99781.56
2023-01-19T09:50:44.146Z,99777.50
2023-01-19T09:52:54.672Z,99768.53
2023-01-19T09:54:57.766Z,99780.03
2023-01-19T09:56:59.358Z,99771.00
2023-01-19T09:59:03.028Z,99773.28
2023-01-19T10:01:16.950Z,99775.94
2023-01-19T10:03:20.902Z,99776.94
2023-01-19T10:05:29.813Z,99773.34
2023-01-19T10:07:51.078Z,99777.34
2023-01-19T10:10:07.061Z,99787.47
2023-01-19T10:12:19.823Z,99778.41
2023-01-19T10:14:30.765Z,99785.44
2023-01-19T10:16:42.952Z,99786.22
2023-01-19T10:18:47.102Z,99782.75
2023-01-19T10:20:51.071Z,99787.72
2023-01-19T10:22:52.747Z,99789.34
2023-01-19T10:24:56.828Z,99789.34
2023-01-19T10:26:58.558Z,99793.72
2023-01-19T10:29:05.293Z,99788.84
2023-01-19T10:31:07.310Z,99793.78
2023-01-19T10:33:12.470Z,99789.97
2023-01-19T10:35:17.088Z,99792.06
2023-01-19T10:37:28.006Z,99783.41
2023-01-19T10:39:29.731Z,99790.06
2023-01-19T10:41:40.363Z,99788.38
2023-01-19T10:43:44.167Z,99790.00
2023-01-19T10:45:50.360Z,99786.13
2023-01-19T10:47:53.612Z,99797.47
2023-01-19T10:49:55.761Z,99795.44
2023-01-19T10:51:59.990Z,99790.94
2023-01-19T10:54:03.318Z,99791.66
2023-01-19T10:56:16.538Z,99786.28
2023-01-19T10:58:31.259Z,99786.38
2023-01-19T11:00:36.165Z,99791.44
2023-01-19T11:02:49.034Z,99788.00
2023-01-19T11:04:51.897Z,99787.78
2023-01-19T11:07:13.317Z,99789.31
2023-01-19T11:09:19.808Z,99785.28
2023-01-19T11:11:23.804Z,99780.78
2023-01-19T11:13:25.303Z,99788.28
2023-01-19T11:15:32.317Z,99788.09
2023-01-19T11:17:34.009Z,99789.72
2023-01-19T11:19:38.219Z,99794.78
2023-01-19T11:21:39.911Z,99788.66
2023-01-19T11:23:46.723Z,99786.47
2023-01-19T11:25:50.228Z,99790.75
2023-01-19T11:27:52.305Z,99791.31
2023-01-19T11:30:02.396Z,99781.50
2023-01-19T11:32:12.119Z,99788.03
2023-01-19T11:34:27.322Z,99784.31
2023-01-19T11:36:30.530Z,99784.41
2023-01-19T11:38:32.717Z,99787.34
2023-01-19T11:40:35.831Z,99785.16
2023-01-19T11:42:37.617Z,99776.88
2023-01-19T11:44:44.957Z,99778.97
2023-01-19T11:46:51.122Z,99784.50
2023-01-19T11:48:55.792Z,99773.34
2023-01-19T11:51:01.311Z,99778.63
2023-01-19T11:53:07.491Z,99766.63
2023-01-19T11:55:17.431Z,99773.06
2023-01-19T11:57:20.736Z,99765.09
2023-01-19T11:59:22.763Z,99766.69
2023-01-19T12:01:27.671Z,99775.03
2023-01-19T12:03:32.917Z,99770.75
2023-01-19T12:05:39.248Z,99766.97
2023-01-19T12:07:43.993Z,99774.97
2023-01-19T12:09:49.459Z,99764.50
2023-01-19T12:11:57.365Z,99768.53
2023-01-19T12:14:01.899Z,99768.59
2023-01-19T12:16:08.258Z,99762.88
2023-01-19T12:18:16.259Z,99769.41
2023-01-19T12:20:27.820Z,99761.94
2023-01-19T12:22:35.272Z,99765.38
2023-01-19T12:24:44.767Z,99758.50
2023-01-19T12:26:53.173Z,99757.69
2023-01-19T12:28:58.437Z,99747.66
2023-01-19T12:31:01.879Z,99751.84
2023-01-19T12:33:37.277Z,99756.63
2023-01-19T12:35:58.948Z,99750.75
2023-01-19T12:38:00.704Z,99745.13
2023-01-19T12:40:14.087Z,99757.22
2023-01-19T12:42:17.574Z,99748.34
2023-01-19T12:44:30.614Z,99750.03
2023-01-19T12:46:33.779Z,99741.03
2023-01-19T12:48:41.994Z,99742.94
2023-01-19T12:50:46.318Z,99739.72
2023-01-19T12:52:53.091Z,99745.59
2023-01-19T12:55:01.574Z,99744.22
2023-01-19T12:57:19.190Z,99749.03
2023-01-19T12:59:25.220Z,99745.78
2023-01-19T13:01:26.904Z,99746.59
2023-01-19T13:03:58.246Z,99735.31
2023-01-19T13:05:59.791Z,99741.50
2023-01-19T13:08:21.598Z,99744.41
2023-01-19T13:11:08.731Z,99742.81
2023-01-19T13:13:17.568Z,99743.50
2023-01-19T13:15:34.675Z,99744.78
2023-01-19T13:17:48.519Z,99745.13
2023-01-19T13:20:01.317Z,99742.41
2023-01-19T13:23:02.013Z,99739.78
2023-01-19T13:25:12.261Z,99749.28
2023-01-19T13:27:14.070Z,99746.47
2023-01-19T13:29:19.989Z,99745.91
2023-01-19T13:31:23.081Z,99751.28
2023-01-19T13:33:27.991Z,99749.94
2023-01-19T13:35:29.529Z,99748.63
2023-01-19T13:37:36.990Z,99744.91
2023-01-19T13:39:42.139Z,99753.69
2023-01-19T13:41:46.992Z,99748.91
2023-01-19T13:43:51.903Z,99755.34
2023-01-19T13:45:55.132Z,99756.16
2023-01-19T13:47:59.549Z,99758.53
2023-01-19T13:50:01.843Z,99758.13
2023-01-19T13:52:11.924Z,99755.44
2023-01-19T13:54:16.157Z,99756.28
2023-01-19T13:56:19.831Z,99754.69
2023-01-19T13:58:23.977Z,99762.97
2023-01-19T14:00:28.189Z,99756.56
2023-01-19T14:02:29.780Z,99764.03
2023-01-19T14:04:33.135Z,99754.16
2023-01-19T14:06:39.321Z,99752.88
2023-01-19T14:08:41.136Z,99759.25
2023-01-19T14:10:44.547Z,99763.47
2023-01-19T14:12:58.921Z,99755.19
2023-01-19T14:15:02.384Z,99760.81
2023-01-19T14:17:04.303Z,99762.41
2023-01-19T14:19:05.888Z,99766.13
2023-01-19T14:21:09.566Z,99762.34
2023-01-19T14:23:52.750Z,99764.53
2023-01-19T14:25:54.369Z,99766.41
2023-01-19T14:28:33.589Z,99768.81
2023-01-19T14:30:36.488Z,99771.22
2023-01-19T14:32:45.118Z,99770.75
2023-01-19T14:34:48.475Z,99772.88
2023-01-19T14:36:51.593Z,99768.59
2023-01-19T14:38:54.701Z,99776.38
2023-01-19T14:40:56.485Z,99776.09
2023-01-19T14:43:00.207Z,99780.59
2023-01-19T14:45:04.770Z,99785.44
2023-01-19T14:47:25.074Z,99776.31
2023-01-19T14:49:33.194Z,99784.34
2023-01-19T14:51:34.927Z,99784.59
2023-01-19T14:53:37.894Z,99778.66
2023-01-19T14:55:46.145Z,99779.78
2023-01-19T14:57:47.856Z,99786.72
2023-01-19T14:59:49.540Z,99787.00
2023-01-19T15:01:51.283Z,99788.47
2023-01-19T15:03:54.434Z,99795.22
2023-01-19T15:06:04.298Z,99789.63
2023-01-19T15:08:07.268Z,99794.69
2023-01-19T15:10:17.279Z,99793.09
2023-01-19T15:12:19.112Z,99792.13
2023-01-19T15:14:21.765Z,99792.72
2023-01-19T15:16:24.244Z,99796.97
2023-01-19T15:18:26.704Z,99790.78
2023-01-19T15:20:29.765Z,99787.56
2023-01-19T15:22:31.268Z,99796.63
2023-01-19T15:24:33.287Z,99794.78
2023-01-19T15:26:36.604Z,99798.47
2023-01-19T15:28:38.175Z,99794.47
2023-01-19T15:30:39.876Z,99797.69
2023-01-19T15:32:42.191Z,99795.03
2023-01-19T15:34:43.970Z,99801.69
2023-01-19T15:36:46.962Z,99795.28
2023-01-19T15:38:48.837Z,99804.09
2023-01-19T15:40:51.657Z,99803.69
2023-01-19T15:42:53.397Z,99798.72
2023-01-19T15:44:55.142Z,99794.22
2023-01-19T15:46:56.691Z,99804.16
2023-01-19T15:48:58.388Z,99804.69
2023-01-19T15:51:00.393Z,99803.38
2023-01-19T15:53:03.828Z,99803.09
2023-01-19T15:55:06.477Z,99807.66
2023-01-19T15:57:08.647Z,99807.97
2023-01-19T15:59:10.284Z,99808.00
2023-01-19T16:01:13.271Z,99809.59
2023-01-19T16:03:14.948Z,99807.72
2023-01-19T16:05:16.651Z,99816.56
2023-01-19T16:07:20.409Z,99815.47
2023-01-19T16:09:23.575Z,99814.16
2023-01-19T16:11:25.917Z,99819.78
2023-01-19T16:13:27.457Z,99821.41
2023-01-19T16:15:29.112Z,99825.69
2023-01-19T16:17:31.198Z,99824.31
2023-01-19T16:19:32.806Z,99827.78
2023-01-19T16:21:34.373Z,99827.00
2023-01-19T16:23:36.294Z,99832.31
2023-01-19T16:25:39.268Z,99835.81
2023-01-19T16:27:40.908Z,99836.88
2023-01-19T16:29:57.597Z,99839.53
2023-01-19T16:31:59.220Z,99842.47
2023-01-19T16:34:00.775Z,99846.19
2023-01-19T16:36:17.844Z,99838.16
2023-01-19T16:38:19.557Z,99840.53
2023-01-19T16:40:21.232Z,99844.81
2023-01-19T16:42:24.545Z,99842.94
2023-01-19T16:44:26.280Z,99845.03
2023-01-19T16:46:30.184Z,99843.97
2023-01-19T16:48:31.997Z,99842.38
2023-01-19T16:50:33.663Z,99848.00
2023-01-19T16:52:35.273Z,99842.38
2023-01-19T16:54:39.240Z,99842.59
2023-01-19T16:56:41.237Z,99850.34
2023-01-19T16:58:44.530Z,99840.69
2023-01-19T17:00:46.216Z,99842.28
2023-01-19T17:02:48.254Z,99840.66
2023-01-19T17:04:49.841Z,99849.13
2023-01-19T17:06:51.530Z,99849.72
2023-01-19T17:08:53.160Z,99853.19
2023-01-19T17:10:54.746Z,99853.97
2023-01-19T17:12:56.426Z,99849.41
2023-01-19T17:14:59.389Z,99854.53
2023-01-19T17:17:01.117Z,99852.91
2023-01-19T17:19:04.751Z,99850.50
2023-01-19T17:21:08.507Z,99845.44
2023-01-19T17:23:10.064Z,99853.69
2023-01-19T17:25:11.636Z,99853.41
2023-01-19T17:27:13.295Z,99857.75
2023-01-19T17:29:15.964Z,99857.97
2023-01-19T17:31:20.879Z,99868.13
2023-01-19T17:33:24.055Z,99864.38
2023-01-19T17:35:25.734Z,99864.09
2023-01-19T17:37:30.201Z,99866.16
2023-01-19T17:39:31.843Z,99860.81
2023-01-19T17:41:35.487Z,99856.03
2023-01-19T17:43:37.090Z,99866.44
2023-01-19T17:45:38.871Z,99861.84
2023-01-19T17:47:41.833Z,99864.25
2023-01-19T17:49:43.484Z,99865.06
2023-01-19T17:51:45.456Z,99862.84
2023-01-19T17:53:47.014Z,99861.28
2023-01-19T17:55:48.609Z,99868.25
2023-01-19T17:57:50.172Z,99873.59
2023-01-19T17:59:51.824Z,99869.53
2023-01-19T18:01:53.474Z,99866.56
2023-01-19T18:03:59.484Z,99873.50
2023-01-19T18:06:01.045Z,99873.81
2023-01-19T18:08:02.843Z,99876.19
2023-01-19T18:10:05.581Z,99881.53
2023-01-19T18:12:07.466Z,99877.44
2023-01-19T18:14:09.113Z,99872.41
2023-01-19T18:16:12.787Z,99872.41
2023-01-19T18:18:14.372Z,99878.56
2023-01-19T18:20:17.589Z,99879.28
2023-01-19T18:22:19.302Z,99882.53
2023-01-19T18:24:23.284Z,99874.53
2023-01-19T18:26:24.916Z,99878.81
2023-01-19T18:28:27.383Z,99872.97
2023-01-19T18:30:29.040Z,99872.13
2023-01-19T18:32:33.047Z,99874.28
2023-01-19T18:34:34.730Z,99871.41
2023-01-19T18:36:39.630Z,99875.91
2023-01-19T18:38:41.470Z,99882.09
2023-01-19T18:40:43.215Z,99877.88
2023-01-19T18:42:44.862Z,99876.84
2023-01-19T18:44:46.486Z,99872.88
2023-01-19T18:46:48.097Z,99884.63
2023-01-19T18:48:52.682Z,99879.22
2023-01-19T18:50:54.276Z,99883.78
2023-01-19T18:52:57.355Z,99873.16
2023-01-19T18:54:59.599Z,99880.63
2023-01-19T18:57:01.189Z,99886.81
2023-01-19T18:59:02.791Z,99881.47
2023-01-19T19:01:16.346Z,99882.53
2023-01-19T19:03:18.051Z,99883.59
2023-01-19T19:05:19.632Z,99883.31
2023-01-19T19:07:21.207Z,99886.31
2023-01-19T19:09:24.194Z,99881.75
2023-01-19T19:11:26.885Z,99880.41
2023-01-19T19:13:28.528Z,99889.50
2023-01-19T19:15:32.175Z,99879.63
2023-01-19T19:17:35.249Z,99882.84
2023-01-19T19:19:37.006Z,99886.31
2023-01-19T19:21:38.634Z,99888.69
2023-01-19T19:23:40.280Z,99892.16
2023-01-19T19:25:43.190Z,99894.06
2023-01-19T19:27:50.701Z,99886.31
2023-01-19T19:29:52.389Z,99888.69
2023-01-19T19:31:54.049Z,99897.78
2023-01-19T19:33:56.967Z,99889.75
2023-01-19T19:35:58.995Z,99891.94
2023-01-19T19:38:00.663Z,99890.31
2023-01-19T19:40:02.375Z,99890.31
2023-01-19T19:42:06.707Z,99892.22
2023-01-19T19:44:10.620Z,99901.03
2023-01-19T19:46:15.193Z,99894.09
2023-01-19T19:48:16.819Z,99898.06
2023-01-19T19:50:19.033Z,99895.88
2023-01-19T19:52:20.783Z,99898.84
2023-01-19T19:54:22.379Z,99900.44
2023-01-19T19:56:25.346Z,99902.91
2023-01-19T19:58:28.911Z,99899.47
2023-01-19T20:00:30.621Z,99900.81
2023-01-19T20:02:32.448Z,99906.97
2023-01-19T20:04:34.125Z,99906.47
2023-01-19T20:06:39.102Z,99906.91
2023-01-19T20:08:41.176Z,99907.97
2023-01-19T20:10:42.849Z,99908.81
2023-01-19T20:12:44.506Z,99901.28
2023-01-19T20:14:47.480Z,99906.91
2023-01-19T20:16:49.190Z,99910.13
2023-01-19T20:18:52.968Z,99907.16
2023-01-19T20:20:54.595Z,99905.84
2023-01-19T20:22:58.014Z,99911.13
2023-01-19T20:24:59.560Z,99912.50
2023-01-19T20:27:01.164Z,99911.69
2023-01-19T20:29:05.211Z,99912.75
2023-01-19T20:31:13.368Z,99915.72
2023-01-19T20:33:14.989Z,99913.31
2023-01-19T20:35:17.202Z,99911.97
2023-01-19T20:37:19.248Z,99916.22
2023-01-19T20:39:23.232Z,99921.06
2023-01-19T20:41:26.127Z,99916.53
2023-01-19T20:43:28.759Z,99916.81
2023-01-19T20:45:30.319Z,99914.38
2023-01-19T20:47:33.332Z,99918.16
2023-01-19T20:49:34.965Z,99916.00
2023-01-19T20:51:36.501Z,99917.63
2023-01-19T20:53:39.844Z,99918.69
2023-01-19T20:55:41.493Z,99917.63
2023-01-19T20:57:43.081Z,99914.94
2023-01-19T20:59:47.532Z,99916.81
2023-01-19T21:01:50.135Z,99918.16
2023-01-19T21:03:53.630Z,99919.72
2023-01-19T21:05:56.449Z,99920.25
2023-01-19T21:07:59.590Z,99918.88
2023-01-19T21:10:01.165Z,99916.47
2023-01-19T21:12:03.076Z,99915.97
2023-01-19T21:14:05.132Z,99926.66
2023-01-19T21:16:08.055Z,99934.69
2023-01-19T21:18:09.910Z,99930.97
2023-01-19T21:20:13.189Z,99932.00
2023-01-19T21:22:14.785Z,99934.69
2023-01-19T21:24:16.350Z,99939.75
2023-01-19T21:26:18.064Z,99930.41
2023-01-19T21:28:20.247Z,99940.06
2023-01-19T21:30:21.831Z,99944.34
2023-01-19T21:32:23.832Z,99943.56
2023-01-19T21:34:25.460Z,99944.69
2023-01-19T21:36:28.586Z,99941.72
2023-01-19T21:38:35.115Z,99950.28
2023-01-19T21:40:36.832Z,99944.69
2023-01-19T21:42:39.190Z,99946.56
2023-01-19T21:44:40.768Z,99940.91
2023-01-19T21:46:42.341Z,99946.56
2023-01-19T21:48:44.060Z,99945.22
2023-01-19T21:50:45.705Z,99951.63
2023-01-19T21:52:48.643Z,99954.59
2023-01-19T21:54:50.489Z,99953.25
2023-01-19T21:56:52.324Z,99958.31
2023-01-19T21:58:54.149Z,99967.69
2023-01-19T22:00:59.612Z,99962.91
2023-01-19T22:03:04.056Z,99970.13
2023-01-19T22:05:07.037Z,99966.13
2023-01-19T22:07:08.649Z,99967.47
2023-01-19T22:09:11.603Z,99962.59
2023-01-19T22:11:15.377Z,99973.28
2023-01-19T22:13:17.040Z,99967.94
2023-01-19T22:15:19.024Z,99975.13
2023-01-19T22:17:20.907Z,99972.19
2023-01-19T22:19:22.871Z,99980.22
2023-01-19T22:21:25.596Z,99979.72
2023-01-19T22:23:27.144Z,99983.97
2023-01-19T22:25:32.641Z,99985.84
2023-01-19T22:27:35.537Z,99986.09
2023-01-19T22:29:37.075Z,99984.47
2023-01-19T22:31:39.478Z,99985.81
2023-01-19T22:33:41.733Z,99989.00
2023-01-19T22:35:43.337Z,99985.56
2023-01-19T22:37:49.472Z,99989.84
2023-01-19T22:39:52.706Z,99998.94
2023-01-19T22:41:55.628Z,99996.31
2023-01-19T22:43:59.170Z,99996.03
2023-01-19T22:46:00.743Z,99993.34
2023-01-19T22:48:02.751Z,99986.69
2023-01-19T22:50:04.956Z,99991.53
2023-01-19T22:52:06.471Z,99995.81
2023-01-19T22:54:08.426Z,99996.03
2023-01-19T22:56:12.858Z,99993.63
2023-01-19T22:58:15.802Z,100000.34
2023-01-19T23:00:23.957Z,99999.78
2023-01-19T23:02:25.551Z,99999.53
2023-01-19T23:04:27.139Z,99999.78
2023-01-19T23:06:30.360Z,99992.84
2023-01-19T23:08:32.773Z,99990.41
2023-01-19T23:10:37.670Z,99996.25
2023-01-19T23:12:39.196Z,99995.75
2023-01-19T23:14:42.403Z,99989.84
2023-01-19T23:16:44.011Z,99994.13
2023-01-19T23:18:46.577Z,99994.97
2023-01-19T23:20:48.106Z,99999.50
2023-01-19T23:22:49.806Z,99994.97
2023-01-19T23:24:52.636Z,100008.06
2023-01-19T23:26:54.145Z,99997.38
2023-01-19T23:28:57.690Z,100008.06
2023-01-19T23:31:01.225Z,100002.72
2023-01-19T23:33:02.988Z,99999.53
2023-01-19T23:35:04.952Z,100004.31
2023-01-19T23:37:06.481Z,100007.56
2023-01-19T23:39:12.487Z,100000.03
2023-01-19T23:41:14.292Z,100009.13
2023-01-19T23:43:15.824Z,100009.69
2023-01-19T23:45:17.383Z,100013.69
2023-01-19T23:47:20.433Z,100015.56
2023-01-19T23:49:21.948Z,100018.81
2023-01-19T23:51:27.171Z,100015.31
2023-01-19T23:53:28.705Z,100016.44
2023-01-19T23:55:30.249Z,100014.81
2023-01-19T23:57:31.854Z,100019.88
2023-01-19T23:59:33.526Z,100016.16
